createdAt,value
2023-03-27T00:00:52.390Z,3.30
2023-03-27T00:01:51.721Z,3.20
2023-03-27T00:02:51.862Z,3.30
2023-03-27T00:03:51.850Z,2.80
2023-03-27T00:04:51.670Z,3.30
2023-03-27T00:05:51.696Z,3.00
2023-03-27T00:06:51.690Z,3.20
2023-03-27T00:07:51.668Z,3.00
2023-03-27T00:08:51.667Z,3.00
2023-03-27T00:09:51.645Z,2.80
2023-03-27T00:10:51.635Z,3.20
2023-03-27T00:11:51.667Z,3.90
2023-03-27T00:12:51.624Z,3.40
2023-03-27T00:13:51.634Z,3.40
2023-03-27T00:14:51.649Z,3.30
2023-03-27T00:15:51.612Z,3.30
2023-03-27T00:16:51.630Z,3.40
2023-03-27T00:17:51.624Z,8.30
2023-03-27T00:18:51.680Z,6.50
2023-03-27T00:19:51.573Z,3.20
2023-03-27T00:20:51.594Z,4.00
2023-03-27T00:21:51.580Z,3.90
2023-03-27T00:22:51.577Z,4.90
2023-03-27T00:23:51.600Z,4.20
2023-03-27T00:24:52.555Z,3.50
2023-03-27T00:25:51.528Z,3.50
2023-03-27T00:26:51.601Z,2.90
2023-03-27T00:27:51.524Z,3.50
2023-03-27T00:28:51.528Z,3.10
2023-03-27T00:29:51.521Z,3.20
2023-03-27T00:30:51.568Z,3.30
2023-03-27T00:31:51.542Z,4.20
2023-03-27T00:32:51.564Z,3.30
2023-03-27T00:33:51.493Z,3.60
2023-03-27T00:34:51.547Z,3.60
2023-03-27T00:35:51.566Z,3.10
2023-03-27T00:36:51.498Z,3.30
2023-03-27T00:37:51.553Z,3.60
2023-03-27T00:38:51.481Z,3.80
2023-03-27T00:39:51.592Z,3.50
2023-03-27T00:40:51.477Z,3.10
2023-03-27T00:41:51.437Z,3.80
2023-03-27T00:42:51.441Z,3.60
2023-03-27T00:43:51.426Z,3.70
2023-03-27T00:44:51.435Z,3.20
2023-03-27T00:45:51.501Z,3.30
2023-03-27T00:46:51.420Z,3.30
2023-03-27T00:47:51.478Z,3.30
2023-03-27T00:48:51.465Z,3.60
2023-03-27T00:49:51.432Z,4.00
2023-03-27T00:50:51.383Z,3.60
2023-03-27T00:51:51.388Z,3.10
2023-03-27T00:52:51.376Z,3.10
2023-03-27T00:53:51.368Z,4.00
2023-03-27T00:54:51.430Z,2.90
2023-03-27T00:55:51.401Z,3.80
2023-03-27T00:56:51.368Z,3.90
2023-03-27T00:57:51.336Z,3.90
2023-03-27T00:58:51.386Z,3.00
2023-03-27T00:59:51.368Z,3.90
2023-03-27T01:00:51.326Z,3.50
2023-03-27T01:01:51.389Z,3.60
2023-03-27T01:02:51.390Z,3.90
2023-03-27T01:03:51.469Z,3.80
2023-03-27T01:04:51.321Z,4.20
2023-03-27T01:05:51.318Z,3.70
2023-03-27T01:06:51.290Z,3.30
2023-03-27T01:08:00.079Z,4.30
2023-03-27T01:08:52.320Z,3.90
2023-03-27T01:09:51.272Z,4.00
2023-03-27T01:10:51.280Z,3.60
2023-03-27T01:11:51.264Z,3.70
2023-03-27T01:12:51.229Z,3.60
2023-03-27T01:13:51.256Z,4.30
2023-03-27T01:14:51.272Z,4.60
2023-03-27T01:15:51.284Z,5.00
2023-03-27T01:16:51.229Z,3.20
2023-03-27T01:17:51.234Z,4.00
2023-03-27T01:18:51.231Z,3.60
2023-03-27T01:19:51.183Z,3.80
2023-03-27T01:20:51.906Z,5.10
2023-03-27T01:21:51.185Z,4.30
2023-03-27T01:22:51.180Z,3.80
2023-03-27T01:24:00.253Z,4.50
2023-03-27T01:24:52.199Z,5.50
2023-03-27T01:25:51.154Z,3.70
2023-03-27T01:26:51.179Z,3.60
2023-03-27T01:27:51.166Z,3.30
2023-03-27T01:28:51.177Z,3.90
2023-03-27T01:29:51.133Z,6.20
2023-03-27T01:30:51.122Z,3.80
2023-03-27T01:31:51.218Z,4.00
2023-03-27T01:32:51.221Z,3.90
2023-03-27T01:33:51.125Z,3.70
2023-03-27T01:35:01.792Z,4.30
2023-03-27T01:35:52.158Z,3.80
2023-03-27T01:36:51.100Z,3.80
2023-03-27T01:37:51.088Z,4.10
2023-03-27T01:38:51.092Z,3.70
2023-03-27T01:39:51.050Z,3.20
2023-03-27T01:40:51.065Z,4.50
2023-03-27T01:41:51.079Z,4.40
2023-03-27T01:42:51.048Z,4.60
2023-03-27T01:43:51.085Z,4.00
2023-03-27T01:44:51.112Z,3.90
2023-03-27T01:45:51.104Z,3.40
2023-03-27T01:46:51.093Z,3.60
2023-03-27T01:47:51.072Z,4.60
2023-03-27T01:48:51.070Z,4.60
2023-03-27T01:49:51.002Z,3.80
2023-03-27T01:50:51.006Z,3.70
2023-03-27T01:51:51.010Z,3.10
2023-03-27T01:52:50.980Z,5.20
2023-03-27T01:53:50.957Z,3.40
2023-03-27T01:54:50.955Z,3.30
2023-03-27T01:55:51.000Z,3.60
2023-03-27T01:56:51.015Z,4.20
2023-03-27T01:57:50.957Z,3.60
2023-03-27T01:58:51.034Z,3.90
2023-03-27T01:59:50.938Z,3.60
2023-03-27T02:00:53.051Z,4.20
2023-03-27T02:01:50.953Z,4.70
2023-03-27T02:02:50.906Z,6.60
2023-03-27T02:03:50.921Z,3.40
2023-03-27T02:04:50.962Z,3.80
2023-03-27T02:05:50.914Z,5.10
2023-03-27T02:06:50.969Z,5.10
2023-03-27T02:07:50.916Z,3.30
2023-03-27T02:08:50.874Z,4.40
2023-03-27T02:09:50.871Z,4.10
2023-03-27T02:10:50.879Z,5.20
2023-03-27T02:11:50.879Z,4.20
2023-03-27T02:12:50.887Z,5.30
2023-03-27T02:13:51.814Z,4.20
2023-03-27T02:14:50.850Z,3.90
2023-03-27T02:15:50.914Z,4.70
2023-03-27T02:16:50.813Z,5.40
2023-03-27T02:17:50.922Z,6.50
2023-03-27T02:18:50.883Z,4.30
2023-03-27T02:19:50.865Z,5.40
2023-03-27T02:20:50.813Z,5.00
2023-03-27T02:21:50.790Z,12.80
2023-03-27T02:22:50.810Z,7.30
2023-03-27T02:23:50.810Z,5.10
2023-03-27T02:24:50.765Z,5.10
2023-03-27T02:25:50.826Z,6.20
2023-03-27T02:26:50.823Z,8.10
2023-03-27T02:27:50.764Z,7.10
2023-03-27T02:28:50.805Z,5.20
2023-03-27T02:29:50.749Z,5.50
2023-03-27T02:31:06.997Z,4.20
2023-03-27T02:31:51.781Z,4.30
2023-03-27T02:32:50.751Z,5.50
2023-03-27T02:33:50.742Z,8.80
2023-03-27T02:34:50.717Z,9.40
2023-03-27T02:35:50.795Z,5.60
2023-03-27T02:36:50.710Z,6.20
2023-03-27T02:37:50.718Z,5.00
2023-03-27T02:38:50.716Z,8.00
2023-03-27T02:39:50.718Z,5.80
2023-03-27T02:40:50.689Z,7.90
2023-03-27T02:41:50.694Z,7.90
2023-03-27T02:42:50.667Z,9.80
2023-03-27T02:43:50.696Z,8.40
2023-03-27T02:44:50.662Z,8.80
2023-03-27T02:45:50.725Z,7.10
2023-03-27T02:46:50.664Z,6.30
2023-03-27T02:47:50.695Z,9.10
2023-03-27T02:48:50.619Z,7.00
2023-03-27T02:49:50.615Z,6.00
2023-03-27T02:50:50.623Z,7.00
2023-03-27T02:51:50.657Z,6.90
2023-03-27T02:52:50.619Z,5.90
2023-03-27T02:53:50.609Z,6.60
2023-03-27T02:54:50.617Z,4.40
2023-03-27T02:55:50.605Z,5.30
2023-03-27T02:56:50.582Z,5.30
2023-03-27T02:57:52.063Z,6.10
2023-03-27T02:58:50.669Z,6.60
2023-03-27T02:59:50.577Z,4.50
2023-03-27T03:00:51.360Z,4.50
2023-03-27T03:01:50.585Z,4.70
2023-03-27T03:02:50.616Z,8.90
2023-03-27T03:03:50.582Z,7.00
2023-03-27T03:04:50.514Z,7.90
2023-03-27T03:05:50.534Z,6.20
2023-03-27T03:06:50.525Z,5.60
2023-03-27T03:07:50.545Z,5.80
2023-03-27T03:08:50.525Z,5.20
2023-03-27T03:09:50.518Z,6.20
2023-03-27T03:10:50.526Z,6.80
2023-03-27T03:11:50.485Z,6.00
2023-03-27T03:12:50.520Z,6.20
2023-03-27T03:13:50.493Z,7.70
2023-03-27T03:14:50.477Z,7.50
2023-03-27T03:15:50.696Z,6.90
2023-03-27T03:16:50.497Z,6.90
2023-03-27T03:17:50.479Z,6.30
2023-03-27T03:18:51.433Z,7.90
2023-03-27T03:19:50.447Z,8.20
2023-03-27T03:20:50.453Z,5.20
2023-03-27T03:21:50.478Z,6.50
2023-03-27T03:22:50.467Z,6.00
2023-03-27T03:23:58.196Z,5.20
2023-03-27T03:24:51.433Z,3.60
2023-03-27T03:25:50.409Z,5.70
2023-03-27T03:26:50.440Z,6.00
2023-03-27T03:27:50.405Z,5.30
2023-03-27T03:29:00.111Z,5.80
2023-03-27T03:29:51.377Z,5.10
2023-03-27T03:30:50.551Z,6.30
2023-03-27T03:31:50.377Z,3.90
2023-03-27T03:32:50.459Z,2.90
2023-03-27T03:33:50.343Z,3.90
2023-03-27T03:34:50.338Z,2.80
2023-03-27T03:35:51.433Z,3.10
2023-03-27T03:36:50.430Z,2.80
2023-03-27T03:37:51.064Z,3.20
2023-03-27T03:38:51.373Z,5.90
2023-03-27T03:39:50.320Z,3.00
2023-03-27T03:41:11.439Z,4.00
2023-03-27T03:41:50.338Z,5.70
2023-03-27T03:42:50.390Z,5.40
2023-03-27T03:43:50.345Z,5.00
2023-03-27T03:44:50.305Z,6.20
2023-03-27T03:45:50.327Z,4.30
2023-03-27T03:46:50.346Z,4.50
2023-03-27T03:47:50.401Z,5.60
2023-03-27T03:48:50.324Z,10.00
2023-03-27T03:49:50.353Z,6.70
2023-03-27T03:50:50.287Z,5.50
2023-03-27T03:52:04.375Z,5.50
2023-03-27T03:52:51.261Z,8.70
2023-03-27T03:53:50.277Z,4.30
2023-03-27T03:54:50.273Z,5.60
2023-03-27T03:55:50.251Z,4.10
2023-03-27T03:56:50.400Z,3.40
2023-03-27T03:57:50.333Z,3.60
2023-03-27T03:58:50.200Z,3.80
2023-03-27T03:59:50.237Z,3.20
2023-03-27T04:00:51.202Z,3.60
2023-03-27T04:01:50.260Z,4.00
2023-03-27T04:02:50.299Z,4.10
2023-03-27T04:03:50.303Z,3.60
2023-03-27T04:04:50.190Z,4.00
2023-03-27T04:05:50.170Z,4.40
2023-03-27T04:06:50.169Z,5.40
2023-03-27T04:07:50.155Z,4.40
2023-03-27T04:08:50.170Z,4.40
2023-03-27T04:09:50.175Z,5.60
2023-03-27T04:10:50.158Z,5.60
2023-03-27T04:11:50.111Z,6.10
2023-03-27T04:12:50.190Z,5.30
2023-03-27T04:13:50.401Z,5.60
2023-03-27T04:14:50.307Z,6.30
2023-03-27T04:15:50.328Z,5.70
2023-03-27T04:16:50.471Z,6.30
2023-03-27T04:17:50.423Z,6.30
2023-03-27T04:18:50.521Z,7.20
2023-03-27T04:19:50.331Z,7.00
2023-03-27T04:20:51.033Z,6.70
2023-03-27T04:21:50.147Z,9.20
2023-03-27T04:22:51.347Z,8.00
2023-03-27T04:23:50.171Z,7.60
2023-03-27T04:24:50.203Z,11.00
2023-03-27T04:25:50.213Z,7.80
2023-03-27T04:26:50.286Z,8.40
2023-03-27T04:27:50.169Z,11.70
2023-03-27T04:28:50.169Z,10.40
2023-03-27T04:29:50.146Z,8.30
2023-03-27T04:30:51.324Z,7.70
2023-03-27T04:31:50.510Z,5.80
2023-03-27T04:32:50.167Z,10.40
2023-03-27T04:33:50.556Z,4.10
2023-03-27T04:34:50.269Z,4.90
2023-03-27T04:36:06.581Z,8.80
2023-03-27T04:36:51.617Z,6.20
2023-03-27T04:37:50.091Z,9.70
2023-03-27T04:38:50.205Z,9.40
2023-03-27T04:39:51.055Z,9.70
2023-03-27T04:40:50.197Z,4.60
2023-03-27T04:41:50.077Z,5.20
2023-03-27T04:42:50.097Z,5.60
2023-03-27T04:43:50.219Z,5.60
2023-03-27T04:44:50.007Z,5.80
2023-03-27T04:45:49.938Z,5.70
2023-03-27T04:46:49.934Z,5.80
2023-03-27T04:47:50.003Z,5.10
2023-03-27T04:48:49.895Z,5.70
2023-03-27T04:49:49.906Z,6.80
2023-03-27T04:50:49.908Z,6.40
2023-03-27T04:51:49.946Z,5.30
2023-03-27T04:52:50.718Z,5.70
2023-03-27T04:53:50.929Z,7.50
2023-03-27T04:54:49.960Z,6.40
2023-03-27T04:55:49.843Z,10.00
2023-03-27T04:56:49.889Z,11.00
2023-03-27T04:57:49.838Z,12.60
2023-03-27T04:58:49.900Z,11.70
2023-03-27T04:59:50.870Z,12.10
2023-03-27T05:00:49.938Z,13.30
2023-03-27T05:01:50.033Z,12.90
2023-03-27T05:02:50.410Z,9.30
2023-03-27T05:03:49.831Z,11.50
2023-03-27T05:04:49.899Z,9.50
2023-03-27T05:05:49.818Z,10.70
2023-03-27T05:06:49.793Z,10.00
2023-03-27T05:07:49.796Z,12.60
2023-03-27T05:08:50.805Z,11.90
2023-03-27T05:09:49.844Z,10.50
2023-03-27T05:10:49.813Z,8.80
2023-03-27T05:11:49.837Z,9.40
2023-03-27T05:12:49.773Z,9.10
2023-03-27T05:13:49.754Z,12.00
2023-03-27T05:14:49.761Z,10.40
2023-03-27T05:15:49.764Z,9.50
2023-03-27T05:16:49.778Z,10.20
2023-03-27T05:17:49.764Z,11.30
2023-03-27T05:18:49.779Z,12.40
2023-03-27T05:19:49.711Z,11.50
2023-03-27T05:20:49.724Z,7.10
2023-03-27T05:21:49.692Z,7.80
2023-03-27T05:22:49.737Z,8.00
2023-03-27T05:23:49.669Z,7.80
2023-03-27T05:24:49.679Z,10.90
2023-03-27T05:26:00.182Z,9.30
2023-03-27T05:26:50.680Z,11.00
2023-03-27T05:27:49.680Z,7.00
2023-03-27T05:28:49.669Z,7.80
2023-03-27T05:29:49.646Z,10.60
2023-03-27T05:30:49.674Z,9.70
2023-03-27T05:31:49.634Z,9.70
2023-03-27T05:32:49.724Z,13.30
2023-03-27T05:33:49.649Z,8.30
2023-03-27T05:34:49.638Z,7.80
2023-03-27T05:35:49.635Z,8.20
2023-03-27T05:36:49.619Z,18.10
2023-03-27T05:37:49.649Z,8.20
2023-03-27T05:38:49.645Z,9.50
2023-03-27T05:39:49.588Z,29.00
2023-03-27T05:40:49.586Z,8.40
2023-03-27T05:41:49.599Z,8.00
2023-03-27T05:42:49.650Z,13.10
2023-03-27T05:43:51.132Z,13.40
2023-03-27T05:44:50.576Z,12.70
2023-03-27T05:45:49.657Z,12.60
2023-03-27T05:46:49.587Z,11.70
2023-03-27T05:47:49.634Z,11.30
2023-03-27T05:48:49.553Z,13.20
2023-03-27T05:49:49.516Z,10.90
2023-03-27T05:50:49.535Z,21.10
2023-03-27T05:51:49.560Z,19.80
2023-03-27T05:52:49.548Z,16.10
2023-03-27T05:53:49.548Z,19.70
2023-03-27T05:54:49.488Z,14.10
2023-03-27T05:55:49.518Z,9.90
2023-03-27T05:56:50.508Z,7.60
2023-03-27T05:57:49.496Z,7.60
2023-03-27T05:58:49.480Z,8.60
2023-03-27T05:59:49.517Z,7.00
2023-03-27T06:00:49.474Z,7.40
2023-03-27T06:01:49.451Z,6.60
2023-03-27T06:02:49.580Z,5.60
2023-03-27T06:03:49.557Z,7.10
2023-03-27T06:04:49.437Z,9.20
2023-03-27T06:05:49.432Z,6.60
2023-03-27T06:06:49.430Z,8.90
2023-03-27T06:07:49.431Z,8.50
2023-03-27T06:08:49.419Z,9.30
2023-03-27T06:09:49.420Z,9.70
2023-03-27T06:10:49.461Z,6.70
2023-03-27T06:11:49.434Z,8.10
2023-03-27T06:12:49.396Z,5.90
2023-03-27T06:13:49.436Z,8.40
2023-03-27T06:14:49.355Z,10.30
2023-03-27T06:15:49.405Z,11.60
2023-03-27T06:16:49.392Z,11.70
2023-03-27T06:17:49.427Z,9.50
2023-03-27T06:18:49.375Z,9.60
2023-03-27T06:19:49.318Z,7.90
2023-03-27T06:20:49.372Z,8.70
2023-03-27T06:21:49.330Z,6.90
2023-03-27T06:22:49.348Z,8.40
2023-03-27T06:23:49.353Z,6.70
2023-03-27T06:24:49.402Z,6.90
2023-03-27T06:25:49.349Z,7.60
2023-03-27T06:26:49.317Z,6.10
2023-03-27T06:27:49.298Z,7.30
2023-03-27T06:28:49.338Z,6.60
2023-03-27T06:29:49.293Z,6.50
2023-03-27T06:30:49.288Z,6.80
2023-03-27T06:31:49.285Z,7.40
2023-03-27T06:32:49.308Z,7.60
2023-03-27T06:33:49.282Z,7.70
2023-03-27T06:34:49.300Z,6.80
2023-03-27T06:35:53.151Z,7.00
2023-03-27T06:36:49.220Z,8.50
2023-03-27T06:37:50.836Z,7.20
2023-03-27T06:38:50.231Z,8.20
2023-03-27T06:39:49.237Z,9.20
2023-03-27T06:40:49.244Z,10.10
2023-03-27T06:41:49.297Z,8.90
2023-03-27T06:42:49.232Z,8.00
2023-03-27T06:43:49.229Z,6.60
2023-03-27T06:44:49.884Z,4.50
2023-03-27T06:45:49.224Z,5.90
2023-03-27T06:46:49.266Z,7.90
2023-03-27T06:47:54.383Z,5.90
2023-03-27T06:48:51.273Z,6.70
2023-03-27T06:49:49.237Z,6.00
2023-03-27T06:50:49.175Z,5.30
2023-03-27T06:51:49.150Z,6.30
2023-03-27T06:52:49.146Z,6.00
2023-03-27T06:53:49.131Z,5.50
2023-03-27T06:54:49.127Z,5.10
2023-03-27T06:55:49.113Z,5.60
2023-03-27T06:56:49.142Z,5.80
2023-03-27T06:57:49.140Z,6.00
2023-03-27T06:58:49.097Z,5.60
2023-03-27T06:59:49.073Z,5.70
2023-03-27T07:00:49.386Z,5.70
2023-03-27T07:01:49.181Z,5.90
2023-03-27T07:02:49.274Z,6.00
2023-03-27T07:03:49.077Z,6.30
2023-03-27T07:05:01.644Z,6.40
2023-03-27T07:05:51.949Z,5.70
2023-03-27T07:06:49.150Z,6.20
2023-03-27T07:07:50.079Z,5.90
2023-03-27T07:08:49.886Z,5.70
2023-03-27T07:09:49.078Z,5.70
2023-03-27T07:10:59.954Z,6.20
2023-03-27T07:11:51.045Z,5.80
2023-03-27T07:12:49.108Z,5.30
2023-03-27T07:13:49.372Z,5.30
2023-03-27T07:14:50.184Z,5.80
2023-03-27T07:15:49.068Z,5.80
2023-03-27T07:16:49.244Z,11.90
2023-03-27T07:17:49.524Z,6.20
2023-03-27T07:18:49.150Z,10.10
2023-03-27T07:19:49.001Z,6.50
2023-03-27T07:20:49.025Z,6.20
2023-03-27T07:21:48.939Z,6.80
2023-03-27T07:22:48.996Z,6.30
2023-03-27T07:23:49.189Z,6.40
2023-03-27T07:24:49.229Z,5.50
2023-03-27T07:25:49.203Z,5.70
2023-03-27T07:26:48.962Z,5.00
2023-03-27T07:27:48.986Z,5.00
2023-03-27T07:28:48.985Z,5.50
2023-03-27T07:29:49.081Z,4.90
2023-03-27T07:30:49.931Z,5.40
2023-03-27T07:31:56.232Z,5.50
2023-03-27T07:32:51.021Z,5.40
2023-03-27T07:33:49.973Z,5.60
2023-03-27T07:34:48.886Z,6.40
2023-03-27T07:35:48.953Z,5.70
2023-03-27T07:36:48.853Z,5.80
2023-03-27T07:37:48.872Z,6.30
2023-03-27T07:38:48.835Z,6.00
2023-03-27T07:39:48.834Z,6.10
2023-03-27T07:40:48.863Z,7.30
2023-03-27T07:41:48.853Z,6.10
2023-03-27T07:42:48.825Z,7.20
2023-03-27T07:43:48.857Z,5.90
2023-03-27T07:44:48.863Z,5.80
2023-03-27T07:45:48.864Z,6.20
2023-03-27T07:46:48.978Z,6.40
2023-03-27T07:47:48.901Z,6.40
2023-03-27T07:48:48.779Z,6.00
2023-03-27T07:49:49.442Z,5.90
2023-03-27T07:50:48.772Z,5.80
2023-03-27T07:51:48.818Z,5.60
2023-03-27T07:52:48.764Z,6.10
2023-03-27T07:53:48.770Z,5.60
2023-03-27T07:54:48.739Z,5.60
2023-03-27T07:55:48.797Z,6.30
2023-03-27T07:56:48.945Z,6.60
2023-03-27T07:58:00.825Z,6.90
2023-03-27T07:58:50.743Z,5.70
2023-03-27T07:59:48.780Z,5.50
2023-03-27T08:00:48.784Z,7.00
2023-03-27T08:01:48.724Z,6.20
2023-03-27T08:02:48.921Z,5.60
2023-03-27T08:03:48.947Z,5.30
2023-03-27T08:04:48.846Z,4.80
2023-03-27T08:05:48.671Z,5.10
2023-03-27T08:06:48.710Z,4.90
2023-03-27T08:07:48.685Z,5.40
2023-03-27T08:08:48.719Z,5.50
2023-03-27T08:09:48.680Z,5.30
2023-03-27T08:10:48.643Z,4.50
2023-03-27T08:11:48.640Z,5.10
2023-03-27T08:12:48.646Z,4.90
2023-03-27T08:13:48.669Z,5.10
2023-03-27T08:14:48.594Z,4.20
2023-03-27T08:15:48.673Z,4.80
2023-03-27T08:16:48.651Z,4.60
2023-03-27T08:17:48.611Z,6.20
2023-03-27T08:18:48.632Z,4.20
2023-03-27T08:19:48.594Z,3.80
2023-03-27T08:20:48.626Z,3.80
2023-03-27T08:21:48.590Z,4.10
2023-03-27T08:22:48.594Z,3.50
2023-03-27T08:23:48.571Z,4.70
2023-03-27T08:24:48.562Z,4.10
2023-03-27T08:25:48.655Z,3.60
2023-03-27T08:26:48.554Z,4.10
2023-03-27T08:27:48.534Z,3.70
2023-03-27T08:28:48.578Z,3.60
2023-03-27T08:29:48.749Z,3.60
2023-03-27T08:30:48.701Z,3.40
2023-03-27T08:31:49.392Z,5.90
2023-03-27T08:32:48.642Z,4.30
2023-03-27T08:33:48.896Z,4.30
2023-03-27T08:34:48.526Z,3.50
2023-03-27T08:35:48.491Z,3.30
2023-03-27T08:36:48.453Z,3.10
2023-03-27T08:37:48.462Z,4.20
2023-03-27T08:38:48.461Z,3.50
2023-03-27T08:39:48.537Z,6.00
2023-03-27T08:40:48.427Z,2.90
2023-03-27T08:41:48.462Z,2.70
2023-03-27T08:42:48.449Z,3.20
2023-03-27T08:43:48.493Z,3.00
2023-03-27T08:44:48.406Z,2.80
2023-03-27T08:45:48.452Z,2.80
2023-03-27T08:46:48.471Z,3.00
2023-03-27T08:47:48.403Z,3.40
2023-03-27T08:48:48.400Z,3.80
2023-03-27T08:49:48.422Z,3.10
2023-03-27T08:50:48.360Z,3.40
2023-03-27T08:51:48.366Z,3.00
2023-03-27T08:52:48.359Z,3.20
2023-03-27T08:53:48.358Z,3.10
2023-03-27T08:54:48.318Z,2.60
2023-03-27T08:55:48.392Z,2.90
2023-03-27T08:56:48.378Z,3.60
2023-03-27T08:57:48.361Z,2.60
2023-03-27T08:58:48.351Z,2.80
2023-03-27T08:59:48.359Z,3.50
2023-03-27T09:00:48.284Z,2.80
2023-03-27T09:01:48.314Z,3.90
2023-03-27T09:02:48.471Z,3.20
2023-03-27T09:03:48.354Z,3.10
2023-03-27T09:04:48.282Z,3.50
2023-03-27T09:05:48.285Z,2.70
2023-03-27T09:06:48.281Z,2.70
2023-03-27T09:07:48.271Z,2.60
2023-03-27T09:08:48.258Z,2.70
2023-03-27T09:09:48.265Z,3.00
2023-03-27T09:10:48.230Z,3.20
2023-03-27T09:11:48.233Z,2.80
2023-03-27T09:12:48.210Z,2.60
2023-03-27T09:13:48.286Z,3.10
2023-03-27T09:14:48.199Z,2.90
2023-03-27T09:15:48.311Z,2.70
2023-03-27T09:16:48.205Z,2.70
2023-03-27T09:17:48.208Z,3.00
2023-03-27T09:18:48.209Z,2.80
2023-03-27T09:19:48.208Z,2.60
2023-03-27T09:20:48.192Z,2.50
2023-03-27T09:21:48.294Z,3.00
2023-03-27T09:22:48.629Z,2.70
2023-03-27T09:23:48.144Z,3.20
2023-03-27T09:24:48.133Z,2.80
2023-03-27T09:25:48.145Z,2.70
2023-03-27T09:26:55.240Z,3.00
2023-03-27T09:27:50.101Z,2.80
2023-03-27T09:28:49.042Z,3.10
2023-03-27T09:29:48.096Z,3.10
2023-03-27T09:30:48.107Z,3.10
2023-03-27T09:31:48.123Z,3.20
2023-03-27T09:32:48.105Z,2.90
2023-03-27T09:33:48.062Z,3.30
2023-03-27T09:34:48.164Z,2.40
2023-03-27T09:35:48.080Z,2.70
2023-03-27T09:36:48.076Z,2.50
2023-03-27T09:37:48.060Z,2.40
2023-03-27T09:38:48.048Z,2.80
2023-03-27T09:39:48.065Z,2.80
2023-03-27T09:40:48.024Z,2.80
2023-03-27T09:43:58.573Z,2.50
2023-03-27T09:44:59.696Z,2.60
2023-03-27T09:45:59.725Z,2.60
2023-03-27T09:46:59.703Z,2.60
2023-03-27T09:47:59.778Z,2.10
2023-03-27T09:48:59.710Z,2.40
2023-03-27T09:49:59.628Z,2.50
2023-03-27T09:50:59.642Z,2.70
2023-03-27T09:51:59.657Z,3.10
2023-03-27T09:52:59.595Z,3.50
2023-03-27T09:53:59.651Z,3.10
2023-03-27T09:54:59.588Z,3.20
2023-03-27T09:56:01.065Z,3.20
2023-03-27T09:56:59.681Z,3.10
2023-03-27T09:58:00.550Z,3.10
2023-03-27T09:58:59.587Z,3.50
2023-03-27T09:59:59.635Z,3.00
2023-03-27T10:00:59.708Z,3.10
2023-03-27T10:01:59.534Z,2.50
2023-03-27T10:02:59.560Z,2.60
2023-03-27T10:03:59.681Z,3.10
2023-03-27T10:04:59.717Z,2.80
2023-03-27T10:05:59.504Z,2.60
2023-03-27T10:06:59.511Z,2.90
2023-03-27T10:07:59.487Z,2.90
2023-03-27T10:08:59.818Z,3.10
2023-03-27T10:09:59.622Z,3.30
2023-03-27T10:10:59.620Z,3.30
2023-03-27T10:11:59.485Z,3.20
2023-03-27T10:12:59.539Z,2.70
2023-03-27T10:13:59.447Z,3.50
2023-03-27T10:15:01.682Z,3.70
2023-03-27T10:15:59.455Z,2.90
2023-03-27T10:16:59.460Z,3.00
2023-03-27T10:17:59.593Z,3.20
2023-03-27T10:18:59.441Z,3.00
2023-03-27T10:19:59.444Z,3.60
2023-03-27T10:20:59.599Z,3.10
2023-03-27T10:21:59.551Z,3.20
2023-03-27T10:22:59.426Z,3.50
2023-03-27T10:23:59.422Z,3.90
2023-03-27T10:24:59.396Z,3.40
2023-03-27T10:25:59.401Z,3.40
2023-03-27T10:26:59.404Z,3.30
2023-03-27T10:27:59.406Z,3.40
2023-03-27T10:28:59.406Z,3.50
2023-03-27T10:29:59.370Z,3.60
2023-03-27T10:30:59.481Z,3.40
2023-03-27T10:31:59.426Z,3.00
2023-03-27T10:32:59.378Z,3.90
2023-03-27T10:33:59.352Z,2.60
2023-03-27T10:34:59.338Z,2.60
2023-03-27T10:35:59.393Z,2.60
2023-03-27T10:36:59.323Z,2.70
2023-03-27T10:37:59.300Z,2.80
2023-03-27T10:38:59.352Z,2.40
2023-03-27T10:39:59.306Z,2.60
2023-03-27T10:41:00.324Z,2.40
2023-03-27T10:41:59.344Z,2.50
2023-03-27T10:42:59.287Z,3.50
2023-03-27T10:43:59.320Z,3.40
2023-03-27T10:44:59.276Z,5.20
2023-03-27T10:45:59.319Z,4.70
2023-03-27T10:46:59.393Z,4.90
2023-03-27T10:47:59.297Z,5.90
2023-03-27T10:48:59.218Z,4.10
2023-03-27T10:49:59.233Z,4.40
2023-03-27T10:50:59.332Z,3.40
2023-03-27T10:51:59.251Z,3.10
2023-03-27T10:52:59.272Z,3.40
2023-03-27T10:53:59.326Z,2.90
2023-03-27T10:54:59.221Z,3.00
2023-03-27T10:55:59.226Z,2.50
2023-03-27T10:56:59.295Z,2.60
2023-03-27T10:57:59.920Z,2.50
2023-03-27T10:58:59.196Z,2.20
2023-03-27T10:59:59.165Z,2.40
2023-03-27T11:00:59.406Z,2.00
2023-03-27T11:01:59.250Z,2.80
2023-03-27T11:02:59.240Z,3.30
2023-03-27T11:03:59.191Z,3.40
2023-03-27T11:04:59.143Z,2.90
2023-03-27T11:05:59.177Z,3.50
2023-03-27T11:06:59.189Z,3.20
2023-03-27T11:07:59.119Z,2.60
2023-03-27T11:08:59.121Z,3.00
2023-03-27T11:09:59.115Z,5.30
2023-03-27T11:10:59.302Z,7.00
2023-03-27T11:11:59.117Z,15.80
2023-03-27T11:12:59.236Z,5.80
2023-03-27T11:13:59.163Z,3.10
2023-03-27T11:14:59.109Z,14.10
2023-03-27T11:15:59.120Z,7.20
2023-03-27T11:16:59.153Z,13.50
2023-03-27T11:17:59.155Z,8.10
2023-03-27T11:18:59.075Z,5.50
2023-03-27T11:19:59.062Z,5.00
2023-03-27T11:20:59.156Z,6.80
2023-03-27T11:21:59.105Z,5.60
2023-03-27T11:22:59.073Z,4.20
2023-03-27T11:23:59.025Z,3.70
2023-03-27T11:24:59.001Z,4.30
2023-03-27T11:25:59.042Z,2.70
2023-03-27T11:26:59.049Z,2.90
2023-03-27T11:27:59.085Z,6.20
2023-03-27T11:28:58.991Z,2.90
2023-03-27T11:29:59.014Z,5.90
2023-03-27T11:30:59.247Z,4.40
2023-03-27T11:32:00.059Z,4.90
2023-03-27T11:32:59.037Z,5.50
2023-03-27T11:33:58.965Z,6.40
2023-03-27T11:34:58.969Z,2.70
2023-03-27T11:35:59.017Z,2.90
2023-03-27T11:36:58.945Z,4.80
2023-03-27T11:37:59.031Z,5.70
2023-03-27T11:38:58.921Z,4.80
2023-03-27T11:39:58.905Z,2.50
2023-03-27T11:40:59.128Z,2.50
2023-03-27T11:41:58.949Z,3.10
2023-03-27T11:42:58.912Z,3.70
2023-03-27T11:43:58.909Z,3.10
2023-03-27T11:44:58.931Z,2.70
2023-03-27T11:45:58.885Z,3.60
2023-03-27T11:46:58.978Z,3.90
2023-03-27T11:47:58.953Z,14.40
2023-03-27T11:48:58.863Z,8.50
2023-03-27T11:49:58.884Z,8.40
2023-03-27T11:50:59.240Z,2.50
2023-03-27T11:51:58.831Z,7.70
2023-03-27T11:52:58.844Z,2.10
2023-03-27T11:53:58.839Z,9.00
2023-03-27T11:54:58.820Z,6.80
2023-03-27T11:55:58.842Z,7.10
2023-03-27T11:56:58.824Z,3.10
2023-03-27T11:57:58.867Z,4.80
2023-03-27T11:58:58.815Z,5.20
2023-03-27T11:59:58.874Z,5.60
2023-03-27T12:00:58.946Z,4.40
2023-03-27T12:01:59.519Z,15.60
2023-03-27T12:02:58.952Z,14.90
2023-03-27T12:03:58.813Z,7.40
2023-03-27T12:04:58.772Z,7.80
2023-03-27T12:05:58.839Z,5.30
2023-03-27T12:07:04.330Z,3.40
2023-03-27T12:08:00.776Z,6.10
2023-03-27T12:08:58.766Z,4.50
2023-03-27T12:09:58.711Z,9.20
2023-03-27T12:10:58.944Z,3.60
2023-03-27T12:11:58.725Z,7.50
2023-03-27T12:12:58.715Z,4.60
2023-03-27T12:14:02.035Z,4.10
2023-03-27T12:14:59.696Z,4.80
2023-03-27T12:15:58.710Z,2.70
2023-03-27T12:16:58.648Z,2.70
2023-03-27T12:17:58.733Z,2.50
2023-03-27T12:19:05.827Z,2.70
2023-03-27T12:20:00.654Z,2.10
2023-03-27T12:20:58.674Z,2.00
2023-03-27T12:21:58.671Z,2.20
2023-03-27T12:22:58.696Z,2.00
2023-03-27T12:23:58.771Z,1.80
2023-03-27T12:24:59.922Z,1.90
2023-03-27T12:25:59.716Z,2.00
2023-03-27T12:26:58.708Z,1.70
2023-03-27T12:27:58.607Z,2.50
2023-03-27T12:28:58.652Z,2.40
2023-03-27T12:29:58.626Z,2.20
2023-03-27T12:30:58.795Z,2.00
2023-03-27T12:31:58.596Z,2.50
2023-03-27T12:33:00.105Z,2.00
2023-03-27T12:33:58.579Z,3.50
2023-03-27T12:34:58.592Z,2.40
2023-03-27T12:35:58.634Z,2.90
2023-03-27T12:36:59.485Z,3.50
2023-03-27T12:37:58.524Z,6.70
2023-03-27T12:38:58.598Z,3.40
2023-03-27T12:39:58.619Z,6.60
2023-03-27T12:40:58.671Z,4.70
2023-03-27T12:41:58.512Z,10.30
2023-03-27T12:42:58.522Z,6.80
2023-03-27T12:43:58.506Z,14.10
2023-03-27T12:45:00.014Z,8.40
2023-03-27T12:45:59.834Z,12.00
2023-03-27T12:46:58.513Z,15.30
2023-03-27T12:47:58.482Z,6.90
2023-03-27T12:48:58.472Z,6.00
2023-03-27T12:49:58.531Z,3.30
2023-03-27T12:50:58.678Z,5.60
2023-03-27T12:51:58.436Z,4.50
2023-03-27T12:52:58.425Z,7.20
2023-03-27T12:53:58.407Z,4.90
2023-03-27T12:54:58.417Z,3.90
2023-03-27T12:55:58.547Z,4.60
2023-03-27T12:56:58.532Z,7.70
2023-03-27T12:57:58.499Z,9.10
2023-03-27T12:58:58.464Z,3.50
2023-03-27T12:59:59.485Z,4.40
2023-03-27T13:00:58.689Z,4.30
2023-03-27T13:01:58.432Z,6.00
2023-03-27T13:02:58.484Z,3.90
2023-03-27T13:03:58.501Z,3.20
2023-03-27T13:04:58.388Z,3.30
2023-03-27T13:05:58.339Z,4.60
2023-03-27T13:06:58.342Z,4.80
2023-03-27T13:07:58.371Z,3.80
2023-03-27T13:08:58.347Z,4.00
2023-03-27T13:09:58.347Z,3.40
2023-03-27T13:10:58.420Z,3.10
2023-03-27T13:11:58.313Z,1.90
2023-03-27T13:12:58.306Z,1.70
2023-03-27T13:13:58.310Z,3.60
2023-03-27T13:14:58.331Z,4.80
2023-03-27T13:15:58.582Z,1.90
2023-03-27T13:16:58.278Z,4.20
2023-03-27T13:17:58.310Z,3.30
2023-03-27T13:18:58.254Z,3.50